AirNav   ATP
 
 457 users online  

T24 Pineland Municipal Airport
Pineland, Texas, USA


FAA INFORMATION EFFECTIVE 09 NOVEMBER 2017

Location

FAA Identifier: T24
Lat/Long: 31-14-00.6790N / 093-58-54.6800W
31-14.011317N / 093-58.911333W
31.2335219 / -93.9818556
(estimated)
Elevation: 260 ft. / 79 m (estimated)
Variation: 05E (1985)
From city: 1 mile SW of PINELAND, TX
Time zone: UTC -6 (UTC -5 during Daylight Saving Time)
Zip code: 75968

Airport Operations

Airport use: Open to the public
Activation date: 03/1961
Control tower: no
ARTCC: HOUSTON CENTER
FSS: MONTGOMERY COUNTY FLIGHT SERVICE STATION
NOTAMs facility: CXO (NOTAM-D service available)
Attendance: UNATNDD
Wind indicator: lighted
Segmented circle: yes
Lights: ACTVT MIRL RY 17/35 - CTAF.
Beacon: white-green (lighted land airport)
Operates sunset to sunrise.

Airport Communications

CTAF/UNICOM: 122.8

Nearby radio navigation aids

VOR radial/distance  VOR name  Freq  Var
LFKr079/38.0LUFKIN VORTAC112.1005E
FXUr279/(39.8)POLK VOR108.4002E

 
NDB name  Hdg/Dist  Freq  Var  ID
AMASON162/37.034104ECZJ -.-. --.. .---

Airport Services

Airframe service: NONE
Powerplant service: NONE
Bottled oxygen: NONE
Bulk oxygen: NONE

Runway Information

Runway 17/35

Dimensions: 3700 x 75 ft. / 1128 x 23 m
Surface: asphalt, in fair condition
Weight bearing capacity: 
Single wheel: 14.0
Runway edge lights: medium intensity
Runway edge markings: MARKINGS FADED.
RUNWAY 17  RUNWAY 35
Gradient: 0.5%0.5%
Traffic pattern: leftleft
Markings: basic, in poor conditionbasic, in poor condition
Obstructions: 65 ft. trees, 1521 ft. from runway, 20:1 slope to clear24 ft. trees, 975 ft. from runway, 32:1 slope to clear

Airport Ownership and Management from official FAA records

Ownership: Publicly-owned
Owner: CITY OF PINELAND
PO BOX 6
PINELAND, TX 75968
Phone 409-584-2390
Manager: CHARLES CORLEY
PO BOX 6
PINELAND, TX 75968
Phone 409-584-2390

Airport Operational Statistics

Aircraft based on the field: 7
Single engine airplanes: 7
    
Aircraft operations: avg 54/week *
75% local general aviation
25% transient general aviation
* for 12-month period ending 13 January 2016

Instrument Procedures

There are no published instrument procedures at T24.

Some nearby airports with instrument procedures:

KJAS - Jasper County Airport-Bell Field (21 nm S)
3R4 - Hart Airport (32 nm NE)
L39 - Leesville Airport (33 nm E)
F17 - Center Municipal Airport (37 nm N)
KLFK - Angelina County Airport (39 nm W)
 
Loc | Ops | Rwys | IFR | FBO | Links
Com | Nav | Svcs | Stats | Notes


 
Area around T24 (Pineland Municipal Airport)
 
Road maps at: MapQuest Bing Google
 
Aerial photo
WARNING: Photo may not be current or correct
Aerial photo of T24 (Pineland Municipal Airport)
Do you have a better or more recent aerial photo of Pineland Municipal Airport that you would like to share? If so, please send us your photo.

 
Sectional chart

 
Airport distance calculator
Flying to Pineland Municipal Airport? Find the distance to fly.

From to T24

Sunrise and sunset
Times for 19-Nov-2017
 Local
(UTC-6)
 Zulu
(UTC)
Morning civil twilight06:2212:22
Sunrise06:4812:48
Sunset17:1523:15
Evening civil twilight17:4123:41

Current date and time
Zulu (UTC)  19-Nov-2017 11:58:46
Local (UTC-6)  19-Nov-2017 05:58:46
 
METAR
KJAS 
21nm S 
191135Z AUTO 36005KT 10SM CLR 09/03 A3028 RMK AO2 T00870027
KF17 
37nm N 
191135Z AUTO 00000KT 10SM CLR 03/01 A3028 RMK AO2 T00330011
KAQV 
38nm NE 
191056Z AUTO 00000KT 10SM CLR 05/02 A3022 RMK AO2 SLP234 T00500017 $
KLFK 
39nm W 
191153Z AUTO 33004KT 10SM CLR 06/02 A3028 RMK AO2 SLP251 T00560022 10106 20050 52007
KDRI 
41nm SE 
191135Z AUTO 36005KT 5SM HZ CLR 07/01 A3025 RMK AO2 T00720008
TAF
KLFK 
39nm W 
190520Z 1906/2006 35009G16KT P6SM SKC FM190800 36007KT P6SM SKC FM191100 36004KT P6SM SKC FM191500 03010G16KT P6SM SKC FM192100 36007KT P6SM SKC FM200000 VRB03KT P6SM SKC
NOTAMs
Click for the latest NOTAMs
NOTAMs are issued by the DoD/FAA and will open in a separate window not controlled by AirNav.

 

 
 

Would you like to see your business listed on this page?

 If your business provides an interesting product or service to pilots, flight crews, aircraft, or users of the Pineland Municipal Airport, you should consider listing it here.  To start the listing process, click on the button below
 
Add a business
 

Other Pages about Pineland Municipal Airport

Update a link
 
Copyright © AirNav, LLC. All rights reserved. Privacy Policy  Contact